This is the latest recevied weather packets stored in our database for station/object IU1OLT-7. If no packets are shown the sender has not sent any weather packets the latest 10 day(s).
| Time | Temp. | Humidity | Pressure | Rain* | Wind** | Luminosity | Snow |
|---|---|---|---|---|---|---|---|
| 1777834386 | 13.33° C | 48% | 1020.8 hPa | - | - | - | - |
| 1777833486 | 12.78° C | 49% | 1020.8 hPa | - | - | - | - |
| 1777832586 | 13.33° C | 46% | 1020.9 hPa | - | - | - | - |
| 1777831686 | 13.89° C | 39% | 1020.8 hPa | - | - | - | - |
| 1777830786 | 13.89° C | 39% | 1020.8 hPa | - | - | - | - |
| 1777829886 | 15.56° C | 40% | 1020.8 hPa | - | - | - | - |
| 1777828986 | 17.22° C | 37% | 1020.8 hPa | - | - | - | - |
| 1777828086 | 18.33° C | 34% | 1020.9 hPa | - | - | - | - |
| 1777827186 | 18.33° C | 33% | 1020.9 hPa | - | - | - | - |
| 1777824486 | 16.67° C | 33% | 1021 hPa | - | - | - | - |
| 1777823586 | 17.78° C | 31% | 1021.1 hPa | - | - | - | - |
| 1777822686 | 21.67° C | 26% | 1021 hPa | - | - | - | - |
| 1777821786 | 22.22° C | 25% | 1021.1 hPa | - | - | - | - |
| 1777820886 | 23.89° C | 23% | 1021.2 hPa | - | - | - | - |
| 1777819986 | 18.33° C | 30% | 1021.3 hPa | - | - | - | - |
| 1777819086 | 19.44° C | 27% | 1021.4 hPa | - | - | - | - |
| 1777818186 | 23.33° C | 23% | 1021.5 hPa | - | - | - | - |
| 1777817285 | 21.67° C | 27% | 1021.6 hPa | - | - | - | - |
| 1777816385 | 22.78° C | 29% | 1021.8 hPa | - | - | - | - |
| 1777815485 | 20.56° C | 29% | 1022 hPa | - | - | - | - |
| 1777814581 | 20° C | 30% | 1022.2 hPa | - | - | - | - |
| 1777813681 | 24.44° C | 24% | 1022.1 hPa | - | - | - | - |
| 1777812781 | 22.78° C | 31% | 1022.4 hPa | - | - | - | - |
| 1777811881 | 23.33° C | 27% | 1022.5 hPa | - | - | - | - |
| 1777811058 | 24.44° C | 27% | 1022.6 hPa | - | - | - | - |
* Rain since midnight (hover to see other rain measurements)
** Current wind speed in m/s (hover to see current wind gust speed)